Terminal Aerodrome Forecast
Issued by NWS Grand Forks, ND

Home | Current Version | Previous Version | Text Only | Print | Product List | Glossary Off
Versions: 1 2 3 4 5 6 7 8 9 10 11 12

000
FTUS43 KFGF 090500
TAFFAR
TAF
KFAR 090520Z 0906/1006 VRB06KT P6SM SCT100
      TEMPO 0906/0908 BKN100
     FM091500 36006KT P6SM SCT050
     FM100000 VRB06KT P6SM SKC=

USA.gov is the U.S. government's official web portal to all federal, state and local government web resources and services.